Hlavní strana
METAR-TAF:

METAR-TAF

Letiště :

Kazaň, Rusko

zeměpisná šířka: 55-47N, zeměpisná délka: 049-12E, výška: 125 m

Aktuální stav počasí

Zpráva byla vytvořena před 44 minutami, v 14:30 UTC
Severozápadní vítr 6 kt
Teplota -17°C
Vlhkost vzduchu 77%
Tlak 1011 hPa
Viditelnost: 2300 m
Oblačno až skoro zataženo ve výšce 3600 ft
slabé sněžení

METAR: UWKD 191430Z 32003MPS 2300 R29/1800D -SN BKN036 M17/M20 Q1011 R29/490340 NOSIG RMK QFE747/0996

Čas: 18:14 (15:14 UTC)

Předpověď počasí

Zpráva byla vytvořena před 1 hodinou a 14 minutami, v 14:00 UTC
Předpověď platná od 19 v 15 UTC do 20 v 15 UTC
Severní vítr 6 kt
Viditelnost: 3100 m
Zataženo ve výšce 1600 ft
slabé sněžení, kouřmo
Dočasný
od 19 v 15 UTC do 19 v 22 UTC
Viditelnost: 0500 m
ve výšce 200 ft
mrznoucí mlha
Dočasný
od 19 v 22 UTC do 20 v 06 UTC
Viditelnost: 1000 m
Oblačno až skoro zataženo ve výšce 400 ft
sníh

TAF: UWKD 191400Z 1915/2015 36003MPS 3100 -SN BR OVC016 TXM18/1915Z TNM22/2005Z TEMPO 1915/1922 0500 FZFG VV002 TEMPO 1922/2006 1000 SN BKN004

Stav a předpovědi počasí z více než 4 000 letišť (zprávy METAR a TAF).

Červené a žluté tečky na mapě představují dostupné meteorologické stanice.

Když kurzor umístíte na tečku, zobrazí se název stanice.

Pak kliknutím zobrazíte stav a předpověď počasí.

Chcete-li změnit mapu, kliknutím na zelené tlačítko se znaménkem +mapu přiblížíte, kliknutím na zelené tlačítko se znaménkem – mapu oddálíte a kliknutím na zelené šipky přejdete na sousední mapy.


METAR-TAF: